Time;durP1;ratioP1;P1;durP2;ratioP2;P2;SDS_P1;SDS_P2;PMS_P1;PMS_P2;Temp;Humidity;BMP_temperature;BMP_pressure;BME280_temperature;BME280_humidity;BME280_pressure;Samples;Min_cycle;Max_cycle;Signal;HPM_P1;HPM_P2
2022/04/04 00:01:10;;;;;;;2.63;2.00;;;;;;;;;;5123904;27;20036;-83
2022/04/04 00:03:36;;;;;;;4.32;2.33;;;;;;;;;;5118778;27;20051;-82
2022/04/04 00:06:03;;;;;;;8.57;2.20;;;;;;;;;;5135738;27;20039;-83
2022/04/04 00:08:30;;;;;;;5.55;2.88;;;;;;;;;;5122295;27;20039;-82
2022/04/04 00:10:56;;;;;;;3.88;2.05;;;;;;;;;;5121111;27;20628;-82
2022/04/04 00:13:22;;;;;;;3.33;2.13;;;;;;;;;;5119660;27;20596;-83
2022/04/04 00:15:49;;;;;;;5.15;2.17;;;;;;;;;;5120307;27;20157;-82
2022/04/04 00:18:15;;;;;;;5.00;2.22;;;;;;;;;;5122628;27;20035;-82
2022/04/04 00:20:42;;;;;;;3.53;2.20;;;;;;;;;;5135474;27;21522;-82
2022/04/04 00:23:12;;;;;;;3.20;1.85;;;;;;;;;;5130072;27;20107;-82
2022/04/04 00:25:42;;;;;;;4.90;2.20;;;;;;;;;;5115088;27;20046;-82
2022/04/04 00:28:09;;;;;;;5.40;2.53;;;;;;;;;;5117964;27;20062;-83
2022/04/04 00:30:35;;;;;;;5.28;1.80;;;;;;;;;;5135682;27;20496;-83
2022/04/04 00:33:01;;;;;;;3.60;2.05;;;;;;;;;;5117924;27;20852;-82
2022/04/04 00:35:31;;;;;;;2.90;1.75;;;;;;;;;;5136423;27;20050;-83
2022/04/04 00:38:00;;;;;;;2.97;1.42;;;;;;;;;;5132377;27;20043;-84
2022/04/04 00:40:26;;;;;;;3.38;2.10;;;;;;;;;;5136499;27;20123;-82
2022/04/04 00:42:53;;;;;;;1.77;1.38;;;;;;;;;;5136118;27;20039;-82
2022/04/04 00:45:20;;;;;;;3.53;1.58;;;;;;;;;;5121228;27;20058;-83
2022/04/04 00:47:46;;;;;;;2.95;2.33;;;;;;;;;;5121841;27;20062;-83
2022/04/04 00:50:13;;;;;;;2.97;1.92;;;;;;;;;;5136698;27;20044;-82
2022/04/04 00:52:39;;;;;;;3.20;1.90;;;;;;;;;;5121742;27;20272;-83
2022/04/04 00:55:08;;;;;;;3.95;3.10;;;;;;;;;;5134198;27;20035;-82
2022/04/04 00:57:35;;;;;;;4.40;2.17;;;;;;;;;;5136553;27;21313;-82
2022/04/04 01:00:02;;;;;;;3.58;1.58;;;;;;;;;;5134020;27;20165;-83
2022/04/04 01:02:28;;;;;;;3.72;1.92;;;;;;;;;;5134400;27;20039;-81
2022/04/04 01:04:54;;;;;;;1.45;1.25;;;;;;;;;;5134342;27;20592;-82
2022/04/04 01:07:20;;;;;;;2.80;1.80;;;;;;;;;;5153066;27;20039;-82
2022/04/04 01:09:47;;;;;;;4.75;2.20;;;;;;;;;;5138505;27;20043;-82
2022/04/04 01:12:15;;;;;;;3.40;2.03;;;;;;;;;;5137003;27;20163;-82
2022/04/04 01:14:45;;;;;;;5.65;2.22;;;;;;;;;;5133102;27;20677;-82
2022/04/04 01:17:11;;;;;;;2.50;1.73;;;;;;;;;;5149846;27;20039;-82
2022/04/04 01:19:37;;;;;;;2.42;1.45;;;;;;;;;;5154061;27;20125;-82
2022/04/04 01:22:06;;;;;;;3.70;1.80;;;;;;;;;;5136789;27;20046;-82
2022/04/04 01:24:32;;;;;;;4.18;1.60;;;;;;;;;;5133253;27;20043;-82
2022/04/04 01:26:58;;;;;;;4.38;1.85;;;;;;;;;;5152980;27;20042;-82
2022/04/04 01:29:24;;;;;;;1.80;1.40;;;;;;;;;;5139505;27;20055;-82
2022/04/04 01:31:51;;;;;;;6.75;2.33;;;;;;;;;;5136403;27;20050;-82
2022/04/04 01:34:18;;;;;;;6.13;3.00;;;;;;;;;;5154630;27;20583;-82
2022/04/04 01:36:44;;;;;;;3.50;1.85;;;;;;;;;;5153036;27;20054;-82
2022/04/04 01:39:11;;;;;;;4.32;2.47;;;;;;;;;;5133380;27;20580;-82
2022/04/04 01:41:37;;;;;;;3.90;2.25;;;;;;;;;;5156327;27;20050;-82
2022/04/04 01:44:03;;;;;;;2.30;1.70;;;;;;;;;;5134000;27;20026;-82
2022/04/04 01:46:30;;;;;;;3.05;1.80;;;;;;;;;;5137764;27;20894;-82
2022/04/04 01:49:01;;;;;;;4.82;1.90;;;;;;;;;;5134594;27;20055;-82
2022/04/04 01:51:27;;;;;;;3.28;1.92;;;;;;;;;;5130541;27;20038;-84
2022/04/04 01:53:53;;;;;;;2.85;1.75;;;;;;;;;;5155156;27;20124;-82
2022/04/04 01:56:19;;;;;;;5.57;2.03;;;;;;;;;;5156069;27;20039;-82
2022/04/04 01:58:46;;;;;;;3.40;2.00;;;;;;;;;;5142538;27;20139;-83
2022/04/04 02:01:13;;;;;;;3.20;2.00;;;;;;;;;;5134997;27;20085;-83
2022/04/04 02:03:41;;;;;;;2.13;1.50;;;;;;;;;;5120329;27;20126;-83
2022/04/04 02:06:07;;;;;;;5.75;2.50;;;;;;;;;;5119196;27;20047;-83
2022/04/04 02:08:34;;;;;;;4.43;1.77;;;;;;;;;;5118834;27;20469;-83
2022/04/04 02:11:02;;;;;;;3.15;1.67;;;;;;;;;;5121482;27;20126;-82
2022/04/04 02:13:28;;;;;;;2.97;1.63;;;;;;;;;;5118032;27;20574;-82
2022/04/04 02:15:56;;;;;;;2.80;1.45;;;;;;;;;;5130815;27;20067;-83
2022/04/04 02:18:23;;;;;;;3.47;1.58;;;;;;;;;;5114513;27;20490;-83
2022/04/04 02:20:49;;;;;;;3.50;1.75;;;;;;;;;;5121577;27;20067;-83
2022/04/04 02:23:20;;;;;;;4.45;2.83;;;;;;;;;;5134005;27;20047;-83
2022/04/04 02:25:46;;;;;;;2.25;1.67;;;;;;;;;;5116698;27;20639;-82
2022/04/04 02:28:13;;;;;;;2.70;2.00;;;;;;;;;;5118112;27;20677;-83
2022/04/04 02:30:40;;;;;;;5.97;2.47;;;;;;;;;;5118207;27;20044;-83
2022/04/04 02:33:06;;;;;;;6.32;2.05;;;;;;;;;;5129832;27;20047;-82
2022/04/04 02:35:32;;;;;;;2.92;1.77;;;;;;;;;;5134716;27;20655;-82
2022/04/04 02:37:59;;;;;;;4.10;1.98;;;;;;;;;;5118332;27;20043;-81
2022/04/04 02:40:25;;;;;;;6.07;2.42;;;;;;;;;;5120663;27;20042;-83
2022/04/04 02:42:51;;;;;;;4.18;2.05;;;;;;;;;;5117403;27;20043;-82
2022/04/04 02:45:18;;;;;;;3.85;2.70;;;;;;;;;;5134899;27;20588;-82
2022/04/04 02:47:45;;;;;;;12.98;8.20;;;;;;;;;;5119034;27;20040;-82
2022/04/04 02:50:11;;;;;;;12.48;7.97;;;;;;;;;;5137735;27;20556;-83
2022/04/04 02:52:37;;;;;;;18.70;9.98;;;;;;;;;;5136554;27;20039;-83
2022/04/04 02:57:51;;;;;;;13.35;9.55;;;;;;;;;;5107275;27;20501;-82
2022/04/04 03:00:19;;;;;;;11.60;7.47;;;;;;;;;;5134164;27;20063;-82
2022/04/04 03:02:46;;;;;;;11.32;6.28;;;;;;;;;;5152715;27;20114;-82
2022/04/04 03:05:12;;;;;;;9.85;6.05;;;;;;;;;;5131364;27;20042;-83
2022/04/04 03:07:38;;;;;;;7.47;5.05;;;;;;;;;;5151269;27;20077;-82
2022/04/04 03:10:05;;;;;;;10.88;4.85;;;;;;;;;;5148988;27;20118;-82
2022/04/04 03:12:31;;;;;;;6.10;3.53;;;;;;;;;;5132730;27;20064;-82
2022/04/04 03:14:57;;;;;;;4.13;2.50;;;;;;;;;;5136502;27;20030;-83
2022/04/04 03:17:25;;;;;;;8.40;2.35;;;;;;;;;;5152210;27;20110;-83
2022/04/04 03:19:51;;;;;;;4.68;2.38;;;;;;;;;;5156949;27;20059;-82
2022/04/04 03:22:17;;;;;;;8.82;2.75;;;;;;;;;;5137380;27;20619;-82
2022/04/04 03:24:44;;;;;;;3.60;2.30;;;;;;;;;;5150846;27;20039;-83
2022/04/04 03:27:14;;;;;;;2.97;2.25;;;;;;;;;;5137399;27;20455;-82
2022/04/04 03:29:40;;;;;;;2.17;1.80;;;;;;;;;;5141979;27;20059;-82
2022/04/04 03:32:07;;;;;;;3.45;1.98;;;;;;;;;;5138328;27;20084;-82
2022/04/04 03:34:34;;;;;;;3.67;2.33;;;;;;;;;;5135427;27;20130;-82
2022/04/04 03:37:00;;;;;;;4.40;2.58;;;;;;;;;;5141251;27;20051;-82
2022/04/04 03:39:26;;;;;;;3.45;1.90;;;;;;;;;;5158187;27;20561;-82
2022/04/04 03:41:54;;;;;;;3.13;1.83;;;;;;;;;;5157883;27;20529;-82
2022/04/04 03:44:20;;;;;;;6.47;2.50;;;;;;;;;;5134005;27;20050;-83
2022/04/04 03:46:46;;;;;;;4.75;2.33;;;;;;;;;;5134590;27;20043;-83
2022/04/04 03:49:12;;;;;;;5.45;2.78;;;;;;;;;;5138622;27;20551;-82
2022/04/04 03:51:38;;;;;;;2.33;1.67;;;;;;;;;;5154513;27;20039;-83
2022/04/04 03:54:07;;;;;;;4.25;2.08;;;;;;;;;;5142957;27;20077;-83
2022/04/04 03:56:34;;;;;;;5.38;2.10;;;;;;;;;;5160553;27;20038;-83
2022/04/04 03:59:00;;;;;;;4.85;3.13;;;;;;;;;;5136796;27;20043;-83
2022/04/04 04:01:28;;;;;;;4.82;2.95;;;;;;;;;;5138440;27;20035;-83
2022/04/04 04:03:54;;;;;;;5.60;2.85;;;;;;;;;;5138252;27;20043;-83
2022/04/04 04:06:20;;;;;;;3.60;2.30;;;;;;;;;;5159460;27;20035;-83
2022/04/04 04:08:47;;;;;;;2.92;2.15;;;;;;;;;;5149974;27;20118;-83
2022/04/04 04:11:14;;;;;;;3.97;2.05;;;;;;;;;;5138046;27;20157;-83
2022/04/04 04:13:45;;;;;;;5.13;2.72;;;;;;;;;;5160093;27;20669;-83
2022/04/04 04:16:13;;;;;;;5.00;2.22;;;;;;;;;;5157040;27;20118;-82
2022/04/04 04:18:39;;;;;;;3.65;1.98;;;;;;;;;;5152215;27;20039;-82
2022/04/04 04:21:07;;;;;;;5.15;1.80;;;;;;;;;;5137031;27;20090;-82
2022/04/04 04:23:34;;;;;;;3.95;2.13;;;;;;;;;;5136035;27;20062;-82
2022/04/04 04:26:00;;;;;;;2.92;2.08;;;;;;;;;;5137486;27;20047;-82
2022/04/04 04:28:26;;;;;;;4.00;1.90;;;;;;;;;;5134644;27;20039;-81
2022/04/04 04:30:53;;;;;;;4.43;2.38;;;;;;;;;;5137647;27;20043;-82
2022/04/04 04:33:19;;;;;;;3.15;1.95;;;;;;;;;;5134701;27;20039;-82
2022/04/04 04:35:45;;;;;;;4.25;2.55;;;;;;;;;;5156335;27;20044;-82
2022/04/04 04:38:11;;;;;;;3.58;2.28;;;;;;;;;;5134701;27;20449;-82
2022/04/04 04:40:37;;;;;;;4.18;1.88;;;;;;;;;;5137072;27;20045;-83
2022/04/04 04:43:03;;;;;;;4.70;2.13;;;;;;;;;;5151717;27;20043;-82
2022/04/04 04:45:29;;;;;;;2.05;1.80;;;;;;;;;;5154938;27;20112;-82
2022/04/04 04:47:56;;;;;;;3.85;2.20;;;;;;;;;;5135126;27;20035;-82
2022/04/04 04:50:22;;;;;;;4.47;2.70;;;;;;;;;;5136680;27;20653;-83
2022/04/04 04:52:49;;;;;;;6.30;2.60;;;;;;;;;;5138118;27;20444;-83
2022/04/04 04:55:16;;;;;;;4.03;2.58;;;;;;;;;;5131620;27;20046;-83
2022/04/04 04:57:42;;;;;;;4.60;2.92;;;;;;;;;;5151542;27;20096;-83
2022/04/04 05:00:10;;;;;;;6.18;2.13;;;;;;;;;;5135578;27;20535;-83
2022/04/04 05:02:36;;;;;;;3.13;2.22;;;;;;;;;;5135248;27;20514;-82
2022/04/04 05:05:04;;;;;;;4.22;3.08;;;;;;;;;;5137422;27;20126;-81
2022/04/04 05:07:31;;;;;;;5.20;3.58;;;;;;;;;;5134782;27;20168;-85
2022/04/04 05:09:57;;;;;;;5.80;2.65;;;;;;;;;;5152437;27;20487;-84
2022/04/04 05:12:23;;;;;;;4.80;3.13;;;;;;;;;;5137286;27;20062;-83
2022/04/04 05:14:51;;;;;;;6.30;3.00;;;;;;;;;;5136474;27;20043;-85
2022/04/04 05:17:17;;;;;;;5.38;2.20;;;;;;;;;;5137586;27;20544;-83
2022/04/04 05:19:44;;;;;;;6.47;3.05;;;;;;;;;;5142177;27;20119;-83
2022/04/04 05:22:10;;;;;;;2.92;2.67;;;;;;;;;;5138395;27;20122;-85
2022/04/04 05:24:37;;;;;;;3.03;2.25;;;;;;;;;;5162942;27;20041;-83
2022/04/04 05:27:03;;;;;;;6.50;2.97;;;;;;;;;;5137949;27;20043;-83
2022/04/04 05:29:29;;;;;;;3.05;1.98;;;;;;;;;;5160831;27;20038;-84
2022/04/04 05:31:56;;;;;;;4.90;2.42;;;;;;;;;;5152488;27;20590;-83
2022/04/04 05:34:22;;;;;;;5.72;2.78;;;;;;;;;;5139392;27;20124;-82
2022/04/04 05:36:49;;;;;;;3.50;2.13;;;;;;;;;;5136233;27;20039;-82
2022/04/04 05:39:15;;;;;;;4.90;2.20;;;;;;;;;;5160155;27;20045;-84
2022/04/04 05:41:42;;;;;;;6.63;2.45;;;;;;;;;;5144565;27;20122;-85
2022/04/04 05:44:08;;;;;;;3.65;1.88;;;;;;;;;;5143024;27;20131;-84
2022/04/04 05:46:34;;;;;;;4.82;2.60;;;;;;;;;;5152296;27;20043;-84
2022/04/04 05:49:01;;;;;;;4.85;2.90;;;;;;;;;;5136968;27;20578;-83
2022/04/04 05:51:28;;;;;;;7.20;2.30;;;;;;;;;;5159788;27;20038;-84
2022/04/04 05:53:56;;;;;;;4.00;2.42;;;;;;;;;;5138198;27;20405;-84
2022/04/04 05:56:22;;;;;;;5.50;2.65;;;;;;;;;;5143552;27;20050;-82
2022/04/04 05:58:51;;;;;;;4.78;3.08;;;;;;;;;;5174467;27;20100;-83
2022/04/04 06:01:18;;;;;;;5.78;2.63;;;;;;;;;;5119260;27;20039;-85
2022/04/04 06:03:44;;;;;;;4.13;2.67;;;;;;;;;;5124643;27;20043;-82
2022/04/04 06:06:10;;;;;;;5.63;3.08;;;;;;;;;;5125583;27;20035;-84
2022/04/04 06:08:37;;;;;;;5.57;2.83;;;;;;;;;;5142440;27;20441;-83
2022/04/04 06:11:03;;;;;;;5.20;2.90;;;;;;;;;;5124423;27;20050;-83
2022/04/04 06:13:29;;;;;;;4.22;3.05;;;;;;;;;;5122614;27;20603;-83
2022/04/04 06:15:55;;;;;;;6.13;2.95;;;;;;;;;;5122547;27;20513;-82
2022/04/04 06:18:24;;;;;;;3.97;2.42;;;;;;;;;;5141013;27;20686;-84
2022/04/04 06:20:51;;;;;;;6.13;2.38;;;;;;;;;;5122909;27;20043;-84
2022/04/04 06:23:26;;;;;;;7.40;3.83;;;;;;;;;;5121849;27;20039;-84
2022/04/04 06:25:56;;;;;;;8.15;2.60;;;;;;;;;;5143726;27;20116;-83
2022/04/04 06:28:24;;;;;;;3.00;1.95;;;;;;;;;;5121400;27;20043;-85
2022/04/04 06:30:51;;;;;;;4.18;2.33;;;;;;;;;;5120781;27;20050;-84
2022/04/04 06:33:18;;;;;;;3.38;2.03;;;;;;;;;;5119885;27;20345;-83
2022/04/04 06:35:45;;;;;;;4.30;2.45;;;;;;;;;;5141706;27;20046;-86
2022/04/04 06:38:12;;;;;;;3.70;2.13;;;;;;;;;;5123398;27;20134;-85
2022/04/04 06:40:38;;;;;;;2.83;2.00;;;;;;;;;;5122719;27;20580;-84
2022/04/04 06:43:05;;;;;;;2.97;2.28;;;;;;;;;;5140795;27;20628;-83
2022/04/04 06:45:31;;;;;;;4.93;2.00;;;;;;;;;;5122892;27;20050;-84
2022/04/04 06:47:57;;;;;;;2.53;1.95;;;;;;;;;;5126843;27;20059;-84
2022/04/04 06:50:31;;;;;;;4.95;2.33;;;;;;;;;;5126742;27;20138;-85
2022/04/04 06:52:58;;;;;;;4.78;2.75;;;;;;;;;;5122765;27;20111;-84
2022/04/04 06:55:24;;;;;;;3.38;2.25;;;;;;;;;;5125397;27;20046;-84
2022/04/04 06:57:50;;;;;;;5.60;2.28;;;;;;;;;;5126016;27;20043;-84
2022/04/04 07:00:16;;;;;;;4.38;2.13;;;;;;;;;;5136614;27;20058;-85
2022/04/04 07:02:44;;;;;;;4.22;2.22;;;;;;;;;;5147176;27;20074;-84
2022/04/04 07:05:10;;;;;;;4.10;1.85;;;;;;;;;;5142096;27;20467;-85
2022/04/04 07:07:37;;;;;;;3.30;2.03;;;;;;;;;;5140856;27;20046;-83
2022/04/04 07:10:03;;;;;;;4.32;2.15;;;;;;;;;;5163826;27;20046;-84
2022/04/04 07:12:30;;;;;;;3.10;2.38;;;;;;;;;;5159061;27;20056;-84
2022/04/04 07:14:56;;;;;;;3.38;2.10;;;;;;;;;;5144826;27;20129;-85
2022/04/04 07:17:22;;;;;;;2.47;1.80;;;;;;;;;;5163921;27;20052;-84
2022/04/04 07:19:48;;;;;;;2.70;1.50;;;;;;;;;;5141589;27;20152;-85
2022/04/04 07:22:16;;;;;;;2.35;1.60;;;;;;;;;;5157471;27;20492;-84
2022/04/04 07:24:42;;;;;;;3.83;2.00;;;;;;;;;;5139059;27;20515;-85
2022/04/04 07:27:08;;;;;;;3.97;1.98;;;;;;;;;;5140831;27;20039;-85
2022/04/04 07:29:38;;;;;;;4.00;2.22;;;;;;;;;;5147634;27;20043;-84
2022/04/04 07:32:05;;;;;;;2.88;1.75;;;;;;;;;;5164376;27;20035;-85
2022/04/04 07:34:31;;;;;;;2.97;1.77;;;;;;;;;;5141568;27;20564;-85
2022/04/04 07:36:57;;;;;;;4.40;2.67;;;;;;;;;;5140727;27;20937;-84
2022/04/04 07:39:23;;;;;;;2.95;1.88;;;;;;;;;;5138637;27;20069;-85
2022/04/04 07:41:49;;;;;;;4.28;2.08;;;;;;;;;;5158132;27;20035;-86
2022/04/04 07:44:17;;;;;;;4.03;1.85;;;;;;;;;;5143656;27;20093;-83
2022/04/04 07:46:50;;;;;;;5.20;2.22;;;;;;;;;;5133598;27;20035;-84
2022/04/04 07:49:17;;;;;;;2.85;1.70;;;;;;;;;;5159803;27;20043;-84
2022/04/04 07:51:44;;;;;;;8.45;2.35;;;;;;;;;;5136429;27;20085;-85
2022/04/04 07:54:11;;;;;;;4.30;2.42;;;;;;;;;;5153652;27;20067;-85
2022/04/04 07:56:37;;;;;;;4.00;1.80;;;;;;;;;;5159018;27;20069;-86
2022/04/04 07:59:03;;;;;;;2.60;1.63;;;;;;;;;;5139776;27;20043;-85
2022/04/04 08:01:29;;;;;;;3.05;2.28;;;;;;;;;;5133314;27;20078;-84
2022/04/04 08:03:55;;;;;;;4.25;2.22;;;;;;;;;;5136515;27;20513;-84
2022/04/04 08:06:21;;;;;;;3.78;2.00;;;;;;;;;;5131047;27;20035;-87
2022/04/04 08:08:47;;;;;;;2.78;1.30;;;;;;;;;;5141376;27;20064;-84
2022/04/04 08:11:13;;;;;;;3.90;1.75;;;;;;;;;;5138367;27;20143;-85
2022/04/04 08:13:44;;;;;;;4.93;2.17;;;;;;;;;;5133152;27;20043;-85
2022/04/04 08:16:10;;;;;;;2.30;1.92;;;;;;;;;;5136651;27;20039;-85
2022/04/04 08:18:36;;;;;;;3.00;1.60;;;;;;;;;;5132422;27;20040;-85
2022/04/04 08:21:02;;;;;;;7.35;2.10;;;;;;;;;;5135022;27;20047;-85
2022/04/04 08:23:29;;;;;;;2.80;1.40;;;;;;;;;;5138637;27;20074;-85
2022/04/04 08:25:59;;;;;;;2.97;1.58;;;;;;;;;;5137817;27;20035;-84
2022/04/04 08:28:27;;;;;;;4.55;2.00;;;;;;;;;;5137551;27;20035;-84
2022/04/04 08:30:54;;;;;;;4.82;1.52;;;;;;;;;;5133763;27;20096;-85
2022/04/04 08:33:20;;;;;;;2.90;1.83;;;;;;;;;;5142130;27;20882;-85
2022/04/04 08:35:46;;;;;;;3.30;1.40;;;;;;;;;;5130869;27;20031;-86
2022/04/04 08:38:13;;;;;;;1.75;1.33;;;;;;;;;;5131368;27;20044;-85
2022/04/04 08:40:44;;;;;;;3.58;2.10;;;;;;;;;;5135854;27;20135;-86
2022/04/04 08:43:11;;;;;;;2.85;1.70;;;;;;;;;;5137487;27;20043;-84
2022/04/04 08:45:41;;;;;;;3.83;1.65;;;;;;;;;;5135466;27;20043;-85
2022/04/04 08:48:09;;;;;;;1.85;1.67;;;;;;;;;;5132863;27;20510;-85
2022/04/04 08:50:36;;;;;;;1.05;0.80;;;;;;;;;;5132010;27;20039;-86
2022/04/04 08:53:02;;;;;;;3.92;1.13;;;;;;;;;;5135764;27;20047;-85
2022/04/04 08:55:28;;;;;;;2.30;1.10;;;;;;;;;;5134541;27;20044;-87
2022/04/04 08:57:56;;;;;;;2.42;1.38;;;;;;;;;;5131634;27;20089;-86
2022/04/04 09:00:22;;;;;;;1.75;1.10;;;;;;;;;;5122744;27;20166;-84
2022/04/04 09:02:58;;;;;;;1.73;0.90;;;;;;;;;;5124656;27;20601;-83
2022/04/04 09:05:25;;;;;;;2.55;1.13;;;;;;;;;;5122719;27;20039;-84
2022/04/04 09:08:00;;;;;;;1.88;0.98;;;;;;;;;;5124204;27;20697;-84
2022/04/04 09:10:41;;;;;;;1.70;0.73;;;;;;;;;;5121551;27;20044;-83
2022/04/04 09:13:07;;;;;;;1.58;1.10;;;;;;;;;;5143023;27;20039;-83
2022/04/04 09:15:48;;;;;;;1.65;0.85;;;;;;;;;;5121590;27;20116;-83
2022/04/04 09:18:15;;;;;;;1.52;0.82;;;;;;;;;;5117419;27;20042;-84
2022/04/04 09:20:48;;;;;;;1.90;0.98;;;;;;;;;;5123644;27;20039;-82
2022/04/04 09:23:14;;;;;;;0.63;0.60;;;;;;;;;;5114148;27;20508;-83
2022/04/04 09:25:40;;;;;;;1.48;0.77;;;;;;;;;;5122658;27;20059;-83
2022/04/04 09:28:17;;;;;;;2.13;0.77;;;;;;;;;;5125238;27;20569;-83
2022/04/04 09:31:02;;;;;;;1.25;1.00;;;;;;;;;;5138900;27;20035;-83
2022/04/04 09:33:35;;;;;;;0.90;0.57;;;;;;;;;;5125895;27;20047;-83
2022/04/04 09:36:04;;;;;;;1.35;1.00;;;;;;;;;;5121809;27;20108;-83
2022/04/04 09:38:33;;;;;;;1.85;1.58;;;;;;;;;;5124942;27;20448;-83
2022/04/04 09:41:20;;;;;;;1.63;0.95;;;;;;;;;;5141992;27;20092;-83
2022/04/04 09:43:54;;;;;;;1.40;0.82;;;;;;;;;;5117350;27;20517;-83
2022/04/04 09:46:20;;;;;;;0.88;0.68;;;;;;;;;;5124356;27;20586;-82
2022/04/04 09:49:02;;;;;;;1.23;1.13;;;;;;;;;;5120358;27;20506;-83
2022/04/04 09:51:54;;;;;;;1.23;0.73;;;;;;;;;;5140133;27;20409;-82
2022/04/04 09:54:26;;;;;;;2.28;1.17;;;;;;;;;;5113647;27;20060;-83
2022/04/04 09:57:12;;;;;;;1.55;0.82;;;;;;;;;;5125098;27;20130;-82
2022/04/04 09:59:42;;;;;;;1.45;0.93;;;;;;;;;;5122729;27;20044;-83
2022/04/04 10:02:09;;;;;;;1.40;1.00;;;;;;;;;;5125130;27;20095;-83
2022/04/04 10:04:35;;;;;;;1.98;0.93;;;;;;;;;;5123949;27;20035;-82
2022/04/04 10:07:09;;;;;;;2.78;0.93;;;;;;;;;;5123296;27;20098;-83
2022/04/04 10:09:38;;;;;;;3.85;0.93;;;;;;;;;;5139036;27;20050;-83
2022/04/04 10:12:05;;;;;;;2.47;0.93;;;;;;;;;;5123549;27;20042;-83
2022/04/04 10:14:32;;;;;;;1.33;0.95;;;;;;;;;;5142340;27;20547;-83
2022/04/04 10:16:59;;;;;;;3.15;0.55;;;;;;;;;;5123478;27;20525;-83
2022/04/04 10:19:27;;;;;;;4.75;1.20;;;;;;;;;;5138396;27;20118;-84
2022/04/04 10:21:53;;;;;;;3.85;1.67;;;;;;;;;;5122191;27;20482;-83
2022/04/04 10:24:20;;;;;;;1.02;0.90;;;;;;;;;;5142643;27;20043;-83
2022/04/04 10:26:48;;;;;;;2.90;1.05;;;;;;;;;;5141982;27;20039;-83
2022/04/04 10:29:14;;;;;;;1.98;1.30;;;;;;;;;;5123276;27;20069;-83
2022/04/04 10:31:51;;;;;;;3.58;1.20;;;;;;;;;;5127364;27;20138;-82
2022/04/04 10:34:18;;;;;;;9.50;1.35;;;;;;;;;;5126171;27;20039;-83
2022/04/04 10:36:54;;;;;;;2.80;1.00;;;;;;;;;;5121158;27;20059;-82
2022/04/04 10:39:31;;;;;;;1.13;0.82;;;;;;;;;;5126538;27;20092;-82
2022/04/04 10:41:57;;;;;;;5.82;1.23;;;;;;;;;;5147530;27;20039;-82
2022/04/04 10:44:44;;;;;;;0.82;0.73;;;;;;;;;;5142672;27;20589;-82
2022/04/04 10:47:23;;;;;;;1.55;1.10;;;;;;;;;;5102089;27;20660;-83
2022/04/04 10:49:50;;;;;;;1.85;1.02;;;;;;;;;;5130453;27;20035;-83
2022/04/04 10:52:23;;;;;;;6.88;1.10;;;;;;;;;;5131171;27;20943;-84
2022/04/04 10:54:49;;;;;;;1.38;1.23;;;;;;;;;;5128555;27;20157;-84
2022/04/04 10:57:23;;;;;;;4.65;1.25;;;;;;;;;;5127120;27;20039;-84
2022/04/04 10:59:56;;;;;;;3.70;1.30;;;;;;;;;;5137219;27;20058;-83
2022/04/04 11:02:23;;;;;;;1.83;1.10;;;;;;;;;;5139508;27;21677;-83
2022/04/04 11:07:41;;;;;;;2.15;1.00;;;;;;;;;;5138959;27;20047;-82
2022/04/04 11:10:08;;;;;;;1.35;0.90;;;;;;;;;;5138874;27;20039;-82
2022/04/04 11:12:53;;;;;;;2.08;1.17;;;;;;;;;;5142897;27;20043;-83
2022/04/04 11:15:40;;;;;;;3.10;1.23;;;;;;;;;;5136691;27;20192;-83
2022/04/04 11:18:06;;;;;;;2.13;1.60;;;;;;;;;;5132625;27;20096;-83
2022/04/04 11:20:33;;;;;;;2.20;1.48;;;;;;;;;;5137620;27;20520;-83
2022/04/04 11:23:04;;;;;;;4.13;1.60;;;;;;;;;;5139751;27;20046;-84
2022/04/04 11:25:37;;;;;;;2.58;1.50;;;;;;;;;;5144295;27;20549;-82
2022/04/04 11:28:07;;;;;;;3.17;1.48;;;;;;;;;;5133392;27;20032;-82
2022/04/04 11:30:33;;;;;;;3.58;1.80;;;;;;;;;;5136211;27;20128;-83
2022/04/04 11:33:00;;;;;;;4.25;1.80;;;;;;;;;;5134448;27;20054;-85
2022/04/04 11:35:28;;;;;;;3.10;1.50;;;3.60;99.90;;;;;;5138330;27;20058;-84
2022/04/04 11:38:11;;;;;;;3.50;1.70;;;11.10;93.50;;;;;;5133109;27;20039;-84
2022/04/04 11:40:39;;;;;;;3.28;1.80;;;10.90;93.20;;;;;;5138639;27;20031;-83
2022/04/04 11:43:10;;;;;;;2.72;1.60;;;11.10;92.70;;;;;;5140730;27;20088;-84
2022/04/04 11:45:39;;;;;;;4.15;2.05;;;11.00;92.10;;;;;;5143090;27;20509;-85
2022/04/04 11:48:11;;;;;;;3.10;1.20;;;11.10;91.90;;;;;;5145035;27;20042;-82
2022/04/04 11:50:38;;;;;;;2.40;1.42;;;10.80;91.50;;;;;;5138276;27;20040;-83
2022/04/04 11:53:05;;;;;;;4.80;1.63;;;10.70;91.20;;;;;;5137285;27;20049;-83
2022/04/04 11:55:35;;;;;;;3.63;1.88;;;10.80;91.50;;;;;;5139510;27;20043;-82
2022/04/04 11:58:04;;;;;;;2.83;1.50;;;10.90;91.70;;;;;;5133997;27;20035;-84
2022/04/04 12:00:35;;;;;;;2.42;1.55;;;11.10;91.20;;;;;;5137355;27;20477;-84
2022/04/04 12:03:27;;;;;;;3.20;1.87;;;11.20;91.00;;;;;;5139110;27;20129;-84
2022/04/04 12:05:55;;;;;;;4.18;2.30;;;11.40;91.20;;;;;;5135209;27;20138;-84
2022/04/04 12:08:25;;;;;;;5.15;2.10;;;11.50;91.10;;;;;;5139560;27;20593;-83
2022/04/04 12:10:51;;;;;;;5.78;1.83;;;11.50;90.40;;;;;;5145540;27;20047;-84
2022/04/04 12:13:22;;;;;;;4.20;1.80;;;11.50;90.40;;;;;;5141066;27;20406;-84
2022/04/04 12:15:50;;;;;;;3.33;2.17;;;11.50;90.30;;;;;;5141958;27;20043;-84
2022/04/04 12:18:25;;;;;;;3.78;2.25;;;11.50;90.00;;;;;;5141755;27;20112;-87
2022/04/04 12:21:00;;;;;;;3.95;2.42;;;11.60;90.20;;;;;;5136398;27;20039;-86
2022/04/04 12:26:14;;;;;;;3.47;2.20;;;11.70;89.80;;;;;;5160856;27;20477;-86
2022/04/04 12:28:52;;;;;;;5.93;3.20;;;11.70;89.80;;;;;;5140492;27;20046;-85
2022/04/04 12:31:36;;;;;;;2.95;2.00;;;11.80;90.00;;;;;;5159014;27;20079;-86
2022/04/04 12:34:10;;;;;;;3.00;2.13;;;11.70;89.80;;;;;;5156943;27;20428;-86
2022/04/04 12:36:41;;;;;;;4.78;2.20;;;11.80;89.50;;;;;;5140115;27;20046;-86
2022/04/04 12:39:20;;;;;;;5.43;2.30;;;11.90;89.30;;;;;;5159063;27;20523;-86
2022/04/04 12:41:51;;;;;;;4.30;2.20;;;12.00;89.50;;;;;;5137181;27;20124;-86
2022/04/04 12:44:28;;;;;;;2.22;1.58;;;12.10;89.50;;;;;;5163016;27;20178;-86
2022/04/04 12:47:12;;;;;;;5.05;1.98;;;12.30;89.30;;;;;;5168398;27;20070;-88
2022/04/04 12:49:39;;;;;;;6.32;2.75;;;12.50;88.90;;;;;;5141144;27;20163;-88
2022/04/04 12:52:07;;;;;;;3.33;1.35;;;12.80;89.20;;;;;;5146194;27;20061;-88
2022/04/04 12:54:35;;;;;;;2.58;1.63;;;12.80;87.80;;;;;;5151190;27;20487;-87
2022/04/04 12:57:09;;;;;;;2.60;1.55;;;12.80;87.80;;;;;;5146933;27;20121;-87
2022/04/04 12:59:54;;;;;;;2.20;1.50;;;12.70;87.20;;;;;;5167255;27;20055;-87
2022/04/04 13:02:28;;;;;;;3.60;2.00;;;12.70;87.30;;;;;;5152819;27;20039;-87
2022/04/04 13:05:18;;;;;;;2.63;2.03;;;12.70;86.70;;;;;;5150859;27;20053;-87
2022/04/04 13:07:53;;;;;;;3.50;2.20;;;12.70;87.00;;;;;;5143727;27;20034;-87
2022/04/04 13:10:24;;;;;;;2.25;1.77;;;12.70;87.00;;;;;;5141056;27;20039;-87
2022/04/04 13:12:50;;;;;;;2.15;1.40;;;12.80;87.10;;;;;;5144086;27;20071;-88
2022/04/04 13:15:37;;;;;;;2.92;1.65;;;12.80;86.80;;;;;;5159808;27;20813;-88
2022/04/04 13:18:08;;;;;;;5.93;2.00;;;12.80;86.40;;;;;;5141664;27;20149;-88
2022/04/04 13:20:34;;;;;;;3.72;1.90;;;12.80;86.30;;;;;;5158124;27;20049;-89
2022/04/04 13:23:00;;;;;;;3.08;1.92;;;12.90;86.80;;;;;;5160730;27;20035;-87
2022/04/04 13:25:30;;;;;;;4.80;2.03;;;12.90;86.40;;;;;;5137198;27;20039;-88
2022/04/04 13:27:56;;;;;;;3.70;1.90;;;12.90;86.20;;;;;;5142809;27;20767;-87
2022/04/04 13:30:22;;;;;;;3.60;1.65;;;13.00;86.10;;;;;;5142127;27;20047;-88
2022/04/04 13:32:48;;;;;;;3.33;2.08;;;13.00;85.50;;;;;;5150072;27;20046;-87
2022/04/04 13:42:36;;;;;;;5.45;1.52;;;13.90;86.10;;;;;;5082607;27;20044;-86
2022/04/04 13:45:04;;;;;;;2.45;1.23;;;13.40;86.50;;;;;;5104143;27;20051;-88
2022/04/04 13:47:30;;;;;;;3.50;1.95;;;13.40;85.50;;;;;;5108101;27;20052;-88
2022/04/04 13:49:57;;;;;;;3.58;1.92;;;13.30;85.80;;;;;;5117965;27;20533;-87
2022/04/04 13:52:23;;;;;;;6.15;2.25;;;13.20;86.10;;;;;;5103194;27;20056;-87
2022/04/04 13:55:18;;;;;;;4.20;1.98;;;12.90;85.90;;;;;;5095935;27;20557;-87
2022/04/04 13:57:50;;;;;;;4.03;1.92;;;13.00;85.80;;;;;;5104114;27;20048;-88
2022/04/04 14:00:16;;;;;;;;;;;13.00;86.00;;;;;;5077267;28;20098;-88
2022/04/04 14:02:43;;;;;;;2.00;1.45;;;13.00;85.80;;;;;;5096781;28;19920;-88
2022/04/04 14:05:15;;;;;;;5.10;2.13;;;12.80;85.90;;;;;;5085015;27;20172;-87
2022/04/04 14:07:41;;;;;;;;;;;12.80;85.90;;;;;;5119074;27;20063;-87
2022/04/04 14:10:10;;;;;;;3.30;1.92;;;12.60;85.90;;;;;;5118239;27;19940;-87
2022/04/04 14:12:35;;;;;;;3.83;2.00;;;12.50;86.20;;;;;;5126782;27;20625;-86
2022/04/04 14:15:10;;;;;;;3.60;2.30;;;12.40;86.20;;;;;;5135991;27;20039;-87
2022/04/04 14:18:08;;;;;;;4.47;2.28;;;12.20;86.10;;;;;;5126722;27;20070;-87
2022/04/04 14:20:36;;;;;;;3.28;2.03;;;12.20;86.10;;;;;;5121677;27;20047;-87
2022/04/04 14:23:03;;;;;;;4.90;2.10;;;12.00;86.00;;;;;;5141090;27;20487;-87
2022/04/04 14:25:31;;;;;;;6.63;2.50;;;11.00;85.90;;;;;;5148772;27;20027;-87
2022/04/04 14:28:17;;;;;;;3.97;2.03;;;12.00;87.00;;;;;;5154428;27;20039;-87
2022/04/04 14:30:46;;;;;;;1.98;0.95;;;11.90;86.80;;;;;;5146259;27;20035;-86
2022/04/04 14:33:14;;;;;;;2.85;2.20;;;11.80;86.50;;;;;;5169241;27;20027;-87
2022/04/04 14:35:40;;;;;;;3.50;1.63;;;11.80;86.70;;;;;;5146395;27;20078;-87
2022/04/04 14:38:05;;;;;;;4.60;1.90;;;11.70;86.70;;;;;;5168977;27;20035;-87
2022/04/04 14:40:41;;;;;;;5.97;1.83;;;11.70;87.50;;;;;;5164816;27;20039;-87